McDaniels, Kentucky
Current Conditions -  °F | °C
As of 1:09 AM on Monday 24 Nov 2014 (Local Time) from KFTK Reporting Station
Overcast Overcast  
Wind Chill: 59°   Ceiling: 1500
Heat Index: 59°   Visibility: 10mi
Dew Point: 57°   Wind: 14mph
Humidity: 94%   Direction: 190°S
Pressure: 29.37"   Gusts: 25mph
Location:  37.61°N, 86.42°W
Report Text: KFTK 240709Z AUTO 19012G22KT 10SM FEW008 OVC015 15/14 A2937 RMK AO2 RAE0706 CIG 012V016
Loading
Personal Weather Stations






























Interactive Weather Map New forecast layout! Learn more

10-Day Weather Forecast

Advertisements
Track Severe Weather on mobile